Time;durP1;ratioP1;P1;durP2;ratioP2;P2;SDS_P1;SDS_P2;PMS_P1;PMS_P2;Temp;Humidity;BMP_temperature;BMP_pressure;BME280_temperature;BME280_humidity;BME280_pressure;Samples;Min_cycle;Max_cycle;Signal;HPM_P1;HPM_P2
2024/03/04 00:00:39;;;;;;;16.00;13.97;;;9.90;99.90;;;;;;5112337;28;20898;-70
2024/03/04 00:03:05;;;;;;;16.40;12.60;;;10.00;99.90;;;;;;5112700;28;20471;-70
2024/03/04 00:05:34;;;;;;;19.40;12.20;;;10.00;99.90;;;;;;5112599;28;20765;-70
2024/03/04 00:07:59;;;;;;;17.87;13.50;;;10.10;99.90;;;;;;5112828;28;20192;-70
2024/03/04 00:10:25;;;;;;;15.03;12.10;;;10.10;99.90;;;;;;5110931;28;20439;-70
2024/03/04 00:12:51;;;;;;;14.73;12.03;;;10.10;99.90;;;;;;5112580;28;20174;-70
2024/03/04 00:15:16;;;;;;;13.47;10.80;;;10.00;99.90;;;;;;5112903;28;20184;-70
2024/03/04 00:17:42;;;;;;;14.47;12.27;;;10.00;99.90;;;;;;5108946;28;20484;-70
2024/03/04 00:20:09;;;;;;;16.00;12.37;;;10.00;99.90;;;;;;5112983;28;20165;-70
2024/03/04 00:22:35;;;;;;;18.73;13.37;;;10.00;99.90;;;;;;5112971;28;20166;-69
2024/03/04 00:25:01;;;;;;;17.30;13.03;;;9.90;99.90;;;;;;5112738;28;20455;-71
2024/03/04 00:27:27;;;;;;;14.87;12.10;;;9.90;99.90;;;;;;5112110;28;20461;-70
2024/03/04 00:29:52;;;;;;;14.50;12.50;;;9.90;99.90;;;;;;5112764;28;21103;-71
2024/03/04 00:32:18;;;;;;;13.07;11.10;;;9.90;99.90;;;;;;5112185;28;20248;-71
2024/03/04 00:34:43;;;;;;;14.20;11.50;;;9.80;99.90;;;;;;5111980;28;20166;-70
2024/03/04 00:37:10;;;;;;;14.90;12.20;;;9.80;99.90;;;;;;5112055;28;20204;-71
2024/03/04 00:39:39;;;;;;;13.30;11.90;;;9.70;99.90;;;;;;5112121;28;20184;-70
2024/03/04 00:42:06;;;;;;;15.20;12.10;;;9.50;99.90;;;;;;5114475;28;20439;-70
2024/03/04 00:44:32;;;;;;;18.03;13.37;;;9.50;99.90;;;;;;5116064;28;20457;-70
2024/03/04 00:46:57;;;;;;;12.50;11.17;;;9.40;99.90;;;;;;5115986;28;20426;-71
2024/03/04 00:49:23;;;;;;;14.70;12.23;;;9.50;99.90;;;;;;5116241;28;20174;-71
2024/03/04 00:51:48;;;;;;;16.17;12.83;;;9.60;99.90;;;;;;5115976;28;20245;-70
2024/03/04 00:54:14;;;;;;;13.47;11.73;;;9.50;99.90;;;;;;5116592;28;20632;-70
2024/03/04 00:56:40;;;;;;;13.53;11.63;;;9.50;99.90;;;;;;5115796;28;20717;-70
2024/03/04 00:59:07;;;;;;;15.57;12.93;;;9.50;99.90;;;;;;5115824;28;20169;-70
2024/03/04 01:01:32;;;;;;;13.40;11.73;;;9.40;99.90;;;;;;5115421;28;20665;-70
2024/03/04 01:03:59;;;;;;;15.13;12.57;;;9.40;99.90;;;;;;5115547;28;20427;-70
2024/03/04 01:06:27;;;;;;;16.27;13.33;;;9.30;99.90;;;;;;5114010;28;20447;-70
2024/03/04 01:08:53;;;;;;;15.67;13.27;;;9.30;99.90;;;;;;5115696;28;20416;-70
2024/03/04 01:11:18;;;;;;;15.23;13.50;;;9.30;99.90;;;;;;5115207;28;20776;-70
2024/03/04 01:13:44;;;;;;;16.07;14.13;;;9.30;99.90;;;;;;5115229;28;20648;-70
2024/03/04 01:16:10;;;;;;;17.37;14.83;;;9.30;99.90;;;;;;5115079;28;20292;-69
2024/03/04 01:18:36;;;;;;;16.43;13.20;;;9.40;99.90;;;;;;5115295;28;20159;-71
2024/03/04 01:21:03;;;;;;;17.30;15.27;;;9.40;99.90;;;;;;5113755;28;20181;-71
2024/03/04 01:23:29;;;;;;;16.27;14.40;;;9.40;99.90;;;;;;5115486;28;20440;-70
2024/03/04 01:25:54;;;;;;;18.63;14.23;;;9.50;99.90;;;;;;5115399;28;20439;-70
2024/03/04 01:28:22;;;;;;;15.70;13.50;;;9.50;99.90;;;;;;5115756;28;20532;-71
2024/03/04 01:30:49;;;;;;;18.70;13.30;;;9.50;99.90;;;;;;5116030;28;20399;-70
2024/03/04 01:33:15;;;;;;;18.10;14.10;;;9.60;99.90;;;;;;5116088;28;20406;-71
2024/03/04 01:35:41;;;;;;;18.33;15.50;;;9.60;99.90;;;;;;5115073;28;20436;-70
2024/03/04 01:38:06;;;;;;;15.47;12.30;;;9.60;99.90;;;;;;5114905;28;20403;-69
2024/03/04 01:40:32;;;;;;;15.63;13.57;;;9.60;99.90;;;;;;5114856;28;20177;-70
2024/03/04 01:42:58;;;;;;;16.90;13.90;;;9.60;99.90;;;;;;5114694;28;20172;-71
2024/03/04 01:45:26;;;;;;;17.17;13.50;;;9.70;99.90;;;;;;5113170;28;20693;-71
2024/03/04 01:47:54;;;;;;;17.87;13.40;;;9.80;99.90;;;;;;5114514;28;20495;-71
2024/03/04 01:50:22;;;;;;;15.47;13.73;;;9.70;99.90;;;;;;5114417;28;20436;-70
2024/03/04 01:52:49;;;;;;;16.90;14.60;;;9.70;99.90;;;;;;5114230;28;20932;-71
2024/03/04 01:55:16;;;;;;;15.80;13.27;;;9.60;99.90;;;;;;5114654;28;20406;-71
2024/03/04 01:57:43;;;;;;;14.07;12.57;;;9.60;99.90;;;;;;5114683;28;20804;-70
2024/03/04 02:00:13;;;;;;;13.97;12.23;;;9.50;99.90;;;;;;5114587;28;20931;-70
2024/03/04 02:02:40;;;;;;;15.23;12.20;;;9.60;99.90;;;;;;5115013;28;20511;-70
2024/03/04 02:05:11;;;;;;;17.10;13.30;;;9.60;99.90;;;;;;5114230;28;20522;-70
2024/03/04 02:07:38;;;;;;;14.90;13.03;;;9.60;99.90;;;;;;5114440;28;20419;-70
2024/03/04 02:10:05;;;;;;;14.83;12.47;;;9.60;99.90;;;;;;5113993;28;20823;-70
2024/03/04 02:12:36;;;;;;;15.47;13.87;;;9.50;99.90;;;;;;5114312;28;20493;-71
2024/03/04 02:15:02;;;;;;;17.20;14.00;;;9.30;99.90;;;;;;5114104;28;20813;-70
2024/03/04 02:17:28;;;;;;;15.17;13.53;;;9.30;99.90;;;;;;5114115;28;20450;-70
2024/03/04 02:20:10;;;;;;;17.77;13.87;;;9.10;99.90;;;;;;5114310;28;20488;-70
2024/03/04 02:22:36;;;;;;;16.00;13.30;;;9.20;99.90;;;;;;5110607;28;20255;-70
2024/03/04 02:25:05;;;;;;;16.30;13.00;;;9.20;99.90;;;;;;5114011;28;20429;-70
2024/03/04 02:27:31;;;;;;;17.17;13.70;;;9.20;99.90;;;;;;5113874;28;20906;-70
2024/03/04 02:29:57;;;;;;;15.30;12.90;;;9.20;99.90;;;;;;5114064;28;20409;-70
2024/03/04 02:32:23;;;;;;;17.20;12.10;;;9.10;99.90;;;;;;5113901;28;20554;-70
2024/03/04 02:34:51;;;;;;;13.10;11.10;;;9.10;99.90;;;;;;5113848;28;20230;-70
2024/03/04 02:37:17;;;;;;;17.00;12.67;;;9.20;99.90;;;;;;5113664;28;20851;-70
2024/03/04 02:39:43;;;;;;;17.67;13.17;;;9.20;99.90;;;;;;5113629;28;20442;-70
2024/03/04 02:42:09;;;;;;;13.30;11.40;;;9.00;99.90;;;;;;5113497;28;20165;-70
2024/03/04 02:44:34;;;;;;;11.53;10.13;;;9.00;99.90;;;;;;5113556;28;20268;-70
2024/03/04 02:47:00;;;;;;;16.20;12.50;;;9.00;99.90;;;;;;5113497;28;20609;-69
2024/03/04 02:49:26;;;;;;;13.43;11.53;;;8.90;99.90;;;;;;5113837;28;20165;-70
2024/03/04 02:51:52;;;;;;;15.70;11.63;;;8.90;99.90;;;;;;5113114;28;20398;-70
2024/03/04 02:54:19;;;;;;;16.40;12.10;;;8.90;99.90;;;;;;5113678;28;20965;-71
2024/03/04 02:56:44;;;;;;;13.37;11.50;;;8.90;99.90;;;;;;5113289;28;20272;-71
2024/03/04 02:59:10;;;;;;;17.10;13.40;;;8.80;99.90;;;;;;5113342;28;20406;-70
2024/03/04 03:01:37;;;;;;;13.67;11.83;;;8.60;99.90;;;;;;5113687;28;20177;-70
2024/03/04 03:04:02;;;;;;;15.17;12.83;;;8.60;99.90;;;;;;5112741;28;20171;-70
2024/03/04 03:06:28;;;;;;;14.93;12.13;;;8.60;99.90;;;;;;5113512;28;20471;-70
2024/03/04 03:08:55;;;;;;;16.60;13.53;;;8.60;99.90;;;;;;5112671;28;20210;-69
2024/03/04 03:11:22;;;;;;;14.70;12.57;;;8.60;99.90;;;;;;5113547;28;20413;-69
2024/03/04 03:13:48;;;;;;;15.53;12.10;;;8.70;99.90;;;;;;5113387;28;20402;-70
2024/03/04 03:16:20;;;;;;;15.90;13.53;;;8.70;99.90;;;;;;5113111;28;20541;-70
2024/03/04 03:18:47;;;;;;;15.43;12.80;;;8.60;99.90;;;;;;5113242;28;20250;-70
2024/03/04 03:21:12;;;;;;;16.73;11.33;;;8.60;99.90;;;;;;5111588;28;20463;-70
2024/03/04 03:23:41;;;;;;;15.50;12.73;;;8.70;99.90;;;;;;5113357;28;20406;-70
2024/03/04 03:26:07;;;;;;;16.90;13.50;;;8.60;99.90;;;;;;5113357;28;20204;-69
2024/03/04 03:28:32;;;;;;;16.90;13.40;;;8.70;99.90;;;;;;5114168;28;20477;-71
2024/03/04 03:30:58;;;;;;;14.87;12.87;;;8.60;99.90;;;;;;5113464;28;20167;-69
2024/03/04 03:33:23;;;;;;;20.30;13.23;;;8.70;99.90;;;;;;5112091;28;20168;-70
2024/03/04 03:35:49;;;;;;;14.53;11.03;;;8.70;99.90;;;;;;5114218;28;20249;-70
2024/03/04 03:38:15;;;;;;;15.53;13.00;;;8.70;99.90;;;;;;5113388;28;20164;-70
2024/03/04 03:40:40;;;;;;;13.93;11.97;;;8.80;99.90;;;;;;5111734;28;20164;-70
2024/03/04 03:43:06;;;;;;;13.77;12.27;;;8.90;99.90;;;;;;5113025;28;20210;-70
2024/03/04 03:45:33;;;;;;;15.03;12.00;;;8.90;99.90;;;;;;5112915;28;20184;-70
2024/03/04 03:47:59;;;;;;;15.77;13.30;;;9.00;99.90;;;;;;5112449;28;20164;-71
2024/03/04 03:50:24;;;;;;;14.20;12.43;;;9.00;99.90;;;;;;5112822;28;20432;-70
2024/03/04 03:52:50;;;;;;;14.63;12.43;;;9.10;99.90;;;;;;5112862;28;20636;-70
2024/03/04 03:55:15;;;;;;;14.40;12.37;;;9.10;99.90;;;;;;5113069;28;20629;-70
2024/03/04 03:57:43;;;;;;;14.37;12.40;;;9.20;99.90;;;;;;5112960;28;20190;-70
2024/03/04 04:00:10;;;;;;;14.23;12.83;;;9.30;99.90;;;;;;5111566;28;20567;-71
2024/03/04 04:02:36;;;;;;;14.67;12.93;;;9.50;99.90;;;;;;5112943;28;20450;-69
2024/03/04 04:05:02;;;;;;;15.80;14.10;;;9.60;99.90;;;;;;5113383;28;20912;-70
2024/03/04 04:07:28;;;;;;;13.17;11.77;;;9.70;99.90;;;;;;5112990;28;20181;-70
2024/03/04 04:09:53;;;;;;;13.30;11.77;;;9.70;99.90;;;;;;5113128;28;20405;-70
2024/03/04 04:12:19;;;;;;;15.37;13.70;;;9.80;99.90;;;;;;5121281;28;20179;-69
2024/03/04 04:14:45;;;;;;;17.40;14.40;;;9.90;99.90;;;;;;5127727;28;20164;-70
2024/03/04 04:17:12;;;;;;;23.10;17.30;;;9.90;99.90;;;;;;5123365;28;20227;-69
2024/03/04 04:19:38;;;;;;;19.80;15.67;;;9.80;99.90;;;;;;5118121;28;20427;-70
2024/03/04 04:22:04;;;;;;;17.60;14.10;;;9.90;99.90;;;;;;5117553;28;20443;-70
2024/03/04 04:24:30;;;;;;;17.07;13.70;;;10.10;99.90;;;;;;5116996;28;20177;-69
2024/03/04 04:26:56;;;;;;;17.20;14.10;;;10.20;99.90;;;;;;5099212;28;20213;-70
2024/03/04 04:29:21;;;;;;;20.23;16.70;;;10.30;99.90;;;;;;5109899;28;20399;-70
2024/03/04 04:31:47;;;;;;;20.80;17.30;;;10.30;99.90;;;;;;5125627;28;20207;-69
2024/03/04 04:34:12;;;;;;;18.33;15.17;;;10.20;99.90;;;;;;5130497;28;20239;-71
2024/03/04 04:36:38;;;;;;;18.80;15.40;;;10.30;99.90;;;;;;5130302;28;20204;-71
2024/03/04 04:39:03;;;;;;;19.47;16.87;;;10.30;99.90;;;;;;5132396;28;20167;-70
2024/03/04 04:41:30;;;;;;;19.07;16.20;;;10.30;99.90;;;;;;5132952;28;20180;-69
2024/03/04 04:43:55;;;;;;;20.73;17.00;;;10.20;99.90;;;;;;5129519;28;20588;-71
2024/03/04 04:46:21;;;;;;;19.57;16.60;;;9.90;99.90;;;;;;5128508;28;20417;-70
2024/03/04 04:48:46;;;;;;;21.17;17.80;;;10.20;99.90;;;;;;5128326;28;20165;-70
2024/03/04 04:51:12;;;;;;;22.30;17.93;;;10.20;99.90;;;;;;5127605;28;20236;-70
2024/03/04 04:53:37;;;;;;;22.53;18.70;;;10.30;99.90;;;;;;5128817;28;20223;-70
2024/03/04 04:56:03;;;;;;;21.37;18.00;;;10.30;99.90;;;;;;5129492;28;20199;-70
2024/03/04 04:58:29;;;;;;;22.93;19.20;;;10.20;99.90;;;;;;5125655;28;20265;-70
2024/03/04 05:00:56;;;;;;;23.67;18.33;;;10.20;99.90;;;;;;5115847;28;20164;-70
2024/03/04 05:03:22;;;;;;;24.43;19.70;;;10.20;99.90;;;;;;5115726;28;20399;-70
2024/03/04 05:05:47;;;;;;;22.27;17.30;;;10.40;99.90;;;;;;5115728;28;20954;-70
2024/03/04 05:08:13;;;;;;;19.13;17.10;;;10.50;99.90;;;;;;5115497;28;20241;-71
2024/03/04 05:10:39;;;;;;;24.73;19.13;;;10.60;99.90;;;;;;5115506;28;20172;-70
2024/03/04 05:13:05;;;;;;;22.50;18.60;;;10.70;99.90;;;;;;5115076;28;20653;-70
2024/03/04 05:15:31;;;;;;;25.03;20.97;;;10.60;99.90;;;;;;5113706;28;20558;-70
2024/03/04 05:17:57;;;;;;;22.90;18.57;;;10.50;99.90;;;;;;5115537;28;20529;-70
2024/03/04 05:20:23;;;;;;;24.23;19.10;;;10.50;99.90;;;;;;5102558;28;20176;-71
2024/03/04 05:22:48;;;;;;;26.90;21.40;;;10.70;99.90;;;;;;5092444;28;20411;-70
2024/03/04 05:25:14;;;;;;;24.13;18.20;;;10.40;99.90;;;;;;5107898;28;20182;-70
2024/03/04 05:27:40;;;;;;;24.17;20.40;;;10.40;99.90;;;;;;5102706;28;20263;-70
2024/03/04 05:30:06;;;;;;;29.27;21.30;;;10.30;99.90;;;;;;5085679;28;20191;-70
2024/03/04 05:32:31;;;;;;;27.43;21.17;;;10.40;99.90;;;;;;5090360;28;20183;-70
2024/03/04 05:34:57;;;;;;;26.93;20.60;;;10.30;99.90;;;;;;5105654;28;21032;-69
2024/03/04 05:37:22;;;;;;;25.87;20.50;;;10.50;99.90;;;;;;5105313;28;20246;-69
2024/03/04 05:39:48;;;;;;;29.63;22.30;;;10.50;99.90;;;;;;5086185;28;20177;-70
2024/03/04 05:42:14;;;;;;;27.80;21.50;;;10.40;99.90;;;;;;5088554;22;20219;-70
2024/03/04 05:44:39;;;;;;;31.47;24.17;;;10.40;99.90;;;;;;5035090;28;20334;-70
2024/03/04 05:47:05;;;;;;;28.07;22.57;;;10.30;99.90;;;;;;5034679;28;20250;-70
2024/03/04 05:49:31;;;;;;;28.20;21.40;;;10.30;99.90;;;;;;5035015;28;20573;-70
2024/03/04 05:51:58;;;;;;;29.07;22.00;;;10.20;99.90;;;;;;5046115;28;20194;-70
2024/03/04 05:54:25;;;;;;;30.57;24.50;;;10.30;99.90;;;;;;5054504;28;20216;-70
2024/03/04 05:56:50;;;;;;;28.40;22.53;;;10.20;99.90;;;;;;5054569;28;20441;-70
2024/03/04 05:59:16;;;;;;;29.20;23.00;;;10.20;99.90;;;;;;5054426;28;20470;-70
2024/03/04 06:01:42;;;;;;;32.37;24.27;;;10.30;99.90;;;;;;5041707;28;20191;-70
2024/03/04 06:04:08;;;;;;;34.20;24.70;;;10.20;99.90;;;;;;5034231;28;20179;-70
2024/03/04 06:06:34;;;;;;;32.43;25.17;;;10.10;99.90;;;;;;5034220;28;20259;-70
2024/03/04 06:09:03;;;;;;;33.07;25.27;;;10.20;99.90;;;;;;5034316;28;20175;-70
2024/03/04 06:11:29;;;;;;;38.33;27.67;;;10.10;99.90;;;;;;5045105;28;20424;-70
2024/03/04 06:13:54;;;;;;;35.77;26.13;;;10.00;99.90;;;;;;5054401;28;20911;-70
2024/03/04 06:16:20;;;;;;;35.83;26.93;;;10.10;99.90;;;;;;5053826;28;20801;-70
2024/03/04 06:18:47;;;;;;;37.90;28.10;;;9.90;99.90;;;;;;5053832;28;20168;-71
2024/03/04 06:21:12;;;;;;;40.20;28.57;;;10.00;99.90;;;;;;5046061;28;20653;-70
2024/03/04 06:23:38;;;;;;;38.30;28.33;;;9.90;99.90;;;;;;5034200;28;20437;-70
2024/03/04 06:26:09;;;;;;;37.53;28.40;;;10.00;99.90;;;;;;5034377;28;20195;-70
2024/03/04 06:28:35;;;;;;;39.57;29.67;;;10.10;99.90;;;;;;5032438;28;20174;-70
2024/03/04 06:31:00;;;;;;;37.93;28.63;;;10.10;99.90;;;;;;5040534;28;20889;-70
2024/03/04 06:33:26;;;;;;;37.30;28.63;;;10.30;99.90;;;;;;5053515;28;20500;-69
2024/03/04 06:35:51;;;;;;;43.90;30.20;;;10.30;99.90;;;;;;5054115;28;20252;-70
2024/03/04 06:38:18;;;;;;;42.27;29.83;;;10.20;99.90;;;;;;5053057;28;20163;-69
2024/03/04 06:40:43;;;;;;;45.30;29.70;;;10.00;99.90;;;;;;5049227;28;20169;-70
2024/03/04 06:43:09;;;;;;;42.43;28.93;;;10.10;99.90;;;;;;5033634;28;20886;-70
2024/03/04 06:45:36;;;;;;;49.23;33.27;;;10.20;99.90;;;;;;5033552;28;20695;-70
2024/03/04 06:48:03;;;;;;;46.47;31.00;;;10.20;99.90;;;;;;5033567;28;20249;-70
2024/03/04 06:50:29;;;;;;;43.43;31.23;;;10.10;99.90;;;;;;5035504;28;20417;-70
2024/03/04 06:52:56;;;;;;;45.77;31.70;;;10.10;99.90;;;;;;5053216;28;20417;-69
2024/03/04 06:55:21;;;;;;;48.57;32.77;;;10.20;99.90;;;;;;5053473;28;20414;-69
2024/03/04 06:57:47;;;;;;;44.47;32.40;;;10.00;99.90;;;;;;5053337;28;20404;-69
2024/03/04 07:00:13;;;;;;;47.83;30.20;;;10.00;99.90;;;;;;5053004;28;20171;-70
2024/03/04 07:02:39;;;;;;;45.23;30.10;;;9.90;99.90;;;;;;5033248;28;20310;-68
2024/03/04 07:05:06;;;;;;;50.23;34.80;;;9.90;99.90;;;;;;5033285;28;20432;-68
2024/03/04 07:07:32;;;;;;;47.80;32.80;;;10.00;99.90;;;;;;5033299;28;20190;-69
2024/03/04 07:09:57;;;;;;;49.67;34.43;;;9.90;99.90;;;;;;5033388;28;20498;-70
2024/03/04 07:12:23;;;;;;;45.67;32.60;;;9.80;99.90;;;;;;5050339;28;20197;-69
2024/03/04 07:14:48;;;;;;;43.47;31.17;;;9.80;99.90;;;;;;5052934;28;20169;-69
2024/03/04 07:17:14;;;;;;;50.50;35.27;;;9.90;99.90;;;;;;5055668;28;20228;-70
2024/03/04 07:19:40;;;;;;;44.60;31.10;;;9.70;99.90;;;;;;5058885;28;20172;-68
2024/03/04 07:22:05;;;;;;;43.30;32.53;;;9.80;99.90;;;;;;5039064;28;20198;-67
2024/03/04 07:24:31;;;;;;;46.20;32.53;;;9.90;99.90;;;;;;5033186;28;20167;-68
2024/03/04 07:26:56;;;;;;;51.13;34.90;;;9.80;99.90;;;;;;5033521;28;20182;-67
2024/03/04 07:29:22;;;;;;;48.27;32.63;;;9.80;99.90;;;;;;5032974;28;20709;-67
2024/03/04 07:31:49;;;;;;;52.93;32.77;;;9.70;99.90;;;;;;5044901;28;20197;-67
2024/03/04 07:34:15;;;;;;;54.50;34.43;;;9.60;99.90;;;;;;5051792;28;20641;-67
2024/03/04 07:36:40;;;;;;;49.87;33.77;;;9.70;99.90;;;;;;5052879;28;20457;-67
2024/03/04 07:39:07;;;;;;;49.10;31.93;;;9.70;99.90;;;;;;5052596;28;20167;-66
2024/03/04 07:41:33;;;;;;;53.87;32.93;;;9.70;99.90;;;;;;5042151;28;20212;-67
2024/03/04 07:43:58;;;;;;;46.17;31.13;;;9.80;99.90;;;;;;5032192;28;20388;-67
2024/03/04 07:46:24;;;;;;;46.33;32.33;;;9.90;99.90;;;;;;5030632;28;20220;-67
2024/03/04 07:48:50;;;;;;;46.97;32.13;;;9.90;99.90;;;;;;5030716;28;20178;-68
2024/03/04 07:51:15;;;;;;;49.87;33.70;;;9.90;99.90;;;;;;5040532;28;20227;-68
2024/03/04 07:53:41;;;;;;;47.70;31.00;;;10.00;99.90;;;;;;5054576;28;20169;-68
2024/03/04 07:56:08;;;;;;;49.27;33.53;;;10.00;99.90;;;;;;5054773;28;20675;-68
2024/03/04 07:58:35;;;;;;;50.70;32.90;;;9.90;99.90;;;;;;5055477;28;20668;-68
2024/03/04 08:01:00;;;;;;;42.60;30.40;;;9.90;99.90;;;;;;5052667;28;20423;-69
2024/03/04 08:03:26;;;;;;;43.70;28.93;;;10.10;99.90;;;;;;5037642;28;20428;-68
2024/03/04 08:05:52;;;;;;;44.80;28.77;;;10.00;99.90;;;;;;5036748;28;20312;-68
2024/03/04 08:08:17;;;;;;;44.43;30.90;;;10.00;99.90;;;;;;5036866;28;20183;-68
2024/03/04 08:10:43;;;;;;;43.03;29.77;;;10.10;99.90;;;;;;5039025;28;20176;-68
2024/03/04 08:13:08;;;;;;;41.43;30.50;;;10.10;99.90;;;;;;5056542;28;20189;-68
2024/03/04 08:15:34;;;;;;;41.67;28.47;;;10.10;99.90;;;;;;5056201;28;20576;-68
2024/03/04 08:18:00;;;;;;;44.00;28.43;;;10.20;99.90;;;;;;5056020;28;20512;-68
2024/03/04 08:20:25;;;;;;;36.87;27.70;;;10.20;99.90;;;;;;5043393;28;20179;-68
2024/03/04 08:22:51;;;;;;;43.23;30.23;;;10.30;99.90;;;;;;5041976;28;20429;-68
2024/03/04 08:25:17;;;;;;;47.63;31.80;;;10.20;99.90;;;;;;5036242;28;20680;-68
2024/03/04 08:27:43;;;;;;;42.60;30.03;;;10.10;99.90;;;;;;5034837;28;20221;-68
2024/03/04 08:30:09;;;;;;;40.83;28.33;;;10.10;99.90;;;;;;5036146;28;20225;-68
2024/03/04 08:32:35;;;;;;;46.40;30.40;;;10.20;99.90;;;;;;5053629;28;20606;-68
2024/03/04 08:35:00;;;;;;;44.23;31.47;;;10.40;99.90;;;;;;5056128;28;20911;-68
2024/03/04 08:37:29;;;;;;;39.73;30.10;;;10.40;99.90;;;;;;5056418;28;20190;-68
2024/03/04 08:39:58;;;;;;;46.23;30.70;;;10.30;99.90;;;;;;5055752;28;20614;-69
2024/03/04 08:42:24;;;;;;;47.77;32.77;;;10.10;99.90;;;;;;5039417;28;20458;-68
2024/03/04 08:44:50;;;;;;;44.73;30.40;;;10.10;99.90;;;;;;5035697;28;20710;-68
2024/03/04 08:47:15;;;;;;;47.27;31.77;;;9.90;99.90;;;;;;5035793;28;20244;-68
2024/03/04 08:49:41;;;;;;;51.00;32.30;;;9.80;99.90;;;;;;5034704;28;20172;-68
2024/03/04 08:52:06;;;;;;;43.23;31.17;;;9.80;99.90;;;;;;5049703;28;20210;-69
2024/03/04 08:54:32;;;;;;;51.70;35.17;;;9.90;99.90;;;;;;5056242;28;20189;-69
2024/03/04 08:56:57;;;;;;;50.00;33.40;;;10.20;99.90;;;;;;5055865;28;20581;-68
2024/03/04 08:59:23;;;;;;;46.33;29.83;;;10.20;99.90;;;;;;5056806;28;20181;-68
2024/03/04 09:01:48;;;;;;;51.83;34.57;;;10.20;99.90;;;;;;5043762;28;20197;-68
2024/03/04 09:04:14;;;;;;;45.10;31.80;;;10.30;99.90;;;;;;5036139;28;20214;-68
2024/03/04 09:06:39;;;;;;;56.47;34.37;;;10.10;99.90;;;;;;5035666;28;20178;-68
2024/03/04 09:09:05;;;;;;;47.37;31.60;;;10.10;99.90;;;;;;5035428;28;20544;-68
2024/03/04 09:11:32;;;;;;;46.57;31.07;;;10.20;99.90;;;;;;5043881;28;20770;-68
2024/03/04 09:13:58;;;;;;;45.07;30.20;;;10.20;99.90;;;;;;5053224;28;20166;-67
2024/03/04 09:16:24;;;;;;;53.90;34.87;;;10.10;99.90;;;;;;5054504;28;20459;-67
2024/03/04 09:18:50;;;;;;;48.37;31.30;;;10.20;99.90;;;;;;5055108;28;20466;-67
2024/03/04 09:21:18;;;;;;;50.80;34.97;;;10.30;99.90;;;;;;5049103;28;20583;-67
2024/03/04 09:23:43;;;;;;;46.43;32.13;;;10.40;99.90;;;;;;5035255;28;20178;-69
2024/03/04 09:26:09;;;;;;;49.20;33.40;;;10.60;99.90;;;;;;5034950;28;20897;-67
2024/03/04 09:28:35;;;;;;;46.40;31.70;;;10.60;99.90;;;;;;5034978;28;20251;-67
2024/03/04 09:31:01;;;;;;;52.13;34.50;;;10.60;99.90;;;;;;5038882;28;20938;-67
2024/03/04 09:33:26;;;;;;;43.83;30.13;;;10.60;99.90;;;;;;5054553;28;20427;-67
2024/03/04 09:35:53;;;;;;;48.50;32.77;;;10.60;99.90;;;;;;5054659;28;20191;-67
2024/03/04 09:38:18;;;;;;;47.27;33.00;;;10.70;99.90;;;;;;5054960;28;20174;-67
2024/03/04 09:40:45;;;;;;;46.07;33.50;;;10.60;99.90;;;;;;5053399;28;20406;-67
2024/03/04 09:43:12;;;;;;;54.90;34.70;;;10.70;99.90;;;;;;5034680;28;20662;-67
2024/03/04 09:45:40;;;;;;;51.10;35.67;;;10.80;99.90;;;;;;5035488;28;20414;-68
2024/03/04 09:48:08;;;;;;;58.20;36.73;;;10.70;99.90;;;;;;5034621;28;20904;-68
2024/03/04 09:50:34;;;;;;;60.47;37.57;;;10.60;99.90;;;;;;5034540;28;20812;-68
2024/03/04 09:53:01;;;;;;;68.10;41.07;;;10.50;99.90;;;;;;5028394;28;20439;-68
2024/03/04 09:55:27;;;;;;;65.57;40.70;;;10.40;99.90;;;;;;5034406;28;20416;-68
2024/03/04 09:57:53;;;;;;;59.63;38.00;;;10.50;99.90;;;;;;5034519;28;20409;-68
2024/03/04 10:00:20;;;;;;;65.93;38.93;;;10.50;99.90;;;;;;5034674;28;20570;-68
2024/03/04 10:02:46;;;;;;;56.67;37.50;;;10.60;99.90;;;;;;5052084;28;20421;-68
2024/03/04 10:05:13;;;;;;;65.00;39.00;;;10.60;99.90;;;;;;5054228;28;20991;-68
2024/03/04 10:07:39;;;;;;;64.40;38.53;;;10.60;99.90;;;;;;5054401;28;20185;-68
2024/03/04 10:10:08;;;;;;;58.13;37.23;;;10.70;99.90;;;;;;5054164;28;20754;-68
2024/03/04 10:12:34;;;;;;;60.17;39.30;;;10.60;99.90;;;;;;5038247;28;20443;-68
2024/03/04 10:15:12;;;;;;;61.00;39.30;;;10.70;99.90;;;;;;5033993;28;20408;-68
2024/03/04 10:17:39;;;;;;;62.57;37.83;;;10.80;99.90;;;;;;5033136;28;20222;-68
2024/03/04 10:20:07;;;;;;;64.73;42.50;;;10.60;99.90;;;;;;5034209;28;20463;-68
2024/03/04 10:22:34;;;;;;;65.23;41.80;;;10.50;99.90;;;;;;5037150;28;20432;-68
2024/03/04 10:25:04;;;;;;;61.87;39.00;;;10.50;99.90;;;;;;5034356;28;20780;-68
2024/03/04 10:27:35;;;;;;;60.13;38.07;;;10.50;99.90;;;;;;5034578;28;20446;-68
2024/03/04 10:30:27;;;;;;;60.90;40.33;;;10.60;99.90;;;;;;5034147;28;20413;-68
2024/03/04 10:32:57;;;;;;;54.93;36.30;;;10.60;99.90;;;;;;5048249;28;20524;-68
2024/03/04 10:35:25;;;;;;;61.90;40.07;;;10.70;99.90;;;;;;5054091;28;20784;-68
2024/03/04 10:37:51;;;;;;;59.97;40.40;;;10.90;99.90;;;;;;5054111;28;20848;-67
2024/03/04 10:40:20;;;;;;;61.97;38.10;;;10.90;99.90;;;;;;5053603;28;20405;-67
2024/03/04 10:42:46;;;;;;;59.60;37.97;;;10.80;99.90;;;;;;5035863;28;20457;-68
2024/03/04 10:45:13;;;;;;;56.40;37.10;;;10.90;99.90;;;;;;5033928;28;20772;-68
2024/03/04 10:47:41;;;;;;;58.90;39.20;;;11.10;99.90;;;;;;5033783;28;20175;-67
2024/03/04 10:50:08;;;;;;;60.17;39.17;;;11.00;99.90;;;;;;5033465;28;20410;-67
2024/03/04 10:52:33;;;;;;;62.00;40.43;;;11.00;99.90;;;;;;5048452;28;20436;-67
2024/03/04 10:54:59;;;;;;;62.83;39.57;;;10.80;99.90;;;;;;5053367;28;20413;-67
2024/03/04 10:57:27;;;;;;;63.87;38.73;;;10.90;99.90;;;;;;5053244;28;20197;-68
2024/03/04 11:00:26;;;;;;;61.00;39.93;;;10.80;99.90;;;;;;5053203;28;20161;-68
2024/03/04 11:03:12;;;;;;;56.97;36.73;;;10.90;99.90;;;;;;5035148;28;20795;-68
2024/03/04 11:05:42;;;;;;;63.00;39.37;;;10.90;99.90;;;;;;5033532;28;20743;-68
2024/03/04 11:08:16;;;;;;;58.80;37.37;;;10.80;99.90;;;;;;5033221;28;20415;-68
2024/03/04 11:10:46;;;;;;;60.03;37.83;;;10.80;99.90;;;;;;5033517;28;20770;-68
2024/03/04 11:13:24;;;;;;;57.47;38.70;;;10.80;99.90;;;;;;5013264;28;20421;-67
2024/03/04 11:15:58;;;;;;;59.57;38.30;;;10.80;99.90;;;;;;5013000;28;20527;-67
2024/03/04 11:18:52;;;;;;;65.80;37.27;;;10.80;99.90;;;;;;5013582;28;20770;-67
2024/03/04 11:21:19;;;;;;;56.43;35.70;;;10.90;99.90;;;;;;5022334;28;20412;-67
2024/03/04 11:23:46;;;;;;;57.80;35.43;;;10.90;99.90;;;;;;5052839;28;20404;-68
2024/03/04 11:26:12;;;;;;;68.00;41.77;;;10.90;99.90;;;;;;5052255;28;20504;-67
2024/03/04 11:28:39;;;;;;;65.93;40.80;;;11.00;99.90;;;;;;5053134;28;20414;-67
2024/03/04 11:31:09;;;;;;;60.63;39.73;;;11.20;99.90;;;;;;5050055;28;20419;-67
2024/03/04 11:33:41;;;;;;;59.17;38.07;;;11.10;99.90;;;;;;5033485;28;20455;-67
2024/03/04 11:36:11;;;;;;;71.73;44.27;;;11.10;99.90;;;;;;5033527;28;20895;-67
2024/03/04 11:38:45;;;;;;;63.83;38.00;;;11.00;99.90;;;;;;5033110;28;20405;-67
2024/03/04 11:41:11;;;;;;;60.93;38.53;;;11.00;99.90;;;;;;5036028;28;20420;-67
2024/03/04 11:43:52;;;;;;;52.03;34.87;;;11.00;99.90;;;;;;5053684;28;20472;-69
2024/03/04 11:46:19;;;;;;;54.67;35.10;;;11.20;99.90;;;;;;5052635;28;20402;-69
2024/03/04 11:48:48;;;;;;;58.27;34.50;;;11.30;99.90;;;;;;5052922;28;20425;-69
2024/03/04 11:51:14;;;;;;;56.33;35.17;;;11.30;99.90;;;;;;5048944;28;20910;-70
2024/03/04 11:53:43;;;;;;;53.57;33.87;;;11.10;99.90;;;;;;5036167;28;20536;-70
2024/03/04 11:56:09;;;;;;;58.60;35.23;;;11.00;99.90;;;;;;5030874;28;20213;-70
2024/03/04 11:58:37;;;;;;;58.13;36.57;;;11.00;99.90;;;;;;5032994;28;20401;-71
2024/03/04 12:01:03;;;;;;;59.00;36.10;;;11.00;99.90;;;;;;5032988;28;20179;-70
2024/03/04 12:03:29;;;;;;;52.00;32.67;;;11.00;99.90;;;;;;5032997;28;20483;-70
2024/03/04 12:05:54;;;;;;;56.80;34.63;;;11.00;99.90;;;;;;5049274;28;20494;-68
2024/03/04 12:08:21;;;;;;;50.10;34.00;;;11.10;99.90;;;;;;5053389;28;20172;-68
2024/03/04 12:10:46;;;;;;;52.80;33.43;;;11.20;99.90;;;;;;5053191;28;20183;-68
2024/03/04 12:13:12;;;;;;;52.83;34.30;;;11.30;99.90;;;;;;5052662;28;20493;-68
2024/03/04 12:15:41;;;;;;;58.07;35.30;;;11.30;99.90;;;;;;5039901;28;20652;-68
2024/03/04 12:18:08;;;;;;;49.33;33.40;;;11.30;99.90;;;;;;5032327;28;20261;-68
2024/03/04 12:20:34;;;;;;;53.17;34.80;;;11.20;99.90;;;;;;5032520;28;20410;-69
2024/03/04 12:23:03;;;;;;;45.93;33.47;;;11.30;99.90;;;;;;5033135;28;20998;-69
2024/03/04 12:25:29;;;;;;;58.20;35.17;;;11.10;99.90;;;;;;5044186;28;20473;-69
2024/03/04 12:27:56;;;;;;;51.27;34.50;;;11.20;99.90;;;;;;5052291;28;20904;-69